createdAt,value
2019-03-23T00:00:15.879Z,25.15
2019-03-23T00:02:45.113Z,26.23
2019-03-23T00:05:14.869Z,24.67
2019-03-23T00:07:44.106Z,24.12
2019-03-23T00:10:13.379Z,28.35
2019-03-23T00:12:42.896Z,25.65
2019-03-23T00:15:12.841Z,27.10
2019-03-23T00:17:42.040Z,26.97
2019-03-23T00:20:11.245Z,28.83
2019-03-23T00:22:40.468Z,28.15
2019-03-23T00:25:09.847Z,28.70
2019-03-23T00:27:39.074Z,28.85
2019-03-23T00:30:09.511Z,29.32
2019-03-23T00:32:38.758Z,29.00
2019-03-23T00:35:08.088Z,27.17
2019-03-23T00:37:37.398Z,28.55
2019-03-23T00:40:07.325Z,25.68
2019-03-23T00:42:36.826Z,25.88
2019-03-23T00:45:06.798Z,24.55
2019-03-23T00:47:36.015Z,29.10
2019-03-23T00:50:06.615Z,28.20
2019-03-23T00:52:35.824Z,27.77
2019-03-23T00:55:05.949Z,26.50
2019-03-23T00:57:35.156Z,27.50
2019-03-23T01:00:05.231Z,29.05
2019-03-23T01:02:34.456Z,27.40
2019-03-23T01:05:03.739Z,29.37
2019-03-23T01:07:32.977Z,27.40
2019-03-23T01:10:02.253Z,27.00
2019-03-23T01:12:31.480Z,26.62
2019-03-23T01:15:00.710Z,27.70
2019-03-23T01:17:29.911Z,29.15
2019-03-23T01:19:59.136Z,29.60
2019-03-23T01:22:28.348Z,25.15
2019-03-23T01:24:57.574Z,34.10
2019-03-23T01:27:26.795Z,30.55
2019-03-23T01:29:56.050Z,28.45
2019-03-23T01:32:25.263Z,29.18
2019-03-23T01:34:54.472Z,25.80
2019-03-23T01:37:23.981Z,26.85
2019-03-23T01:39:53.197Z,28.35
2019-03-23T01:42:22.435Z,28.98
2019-03-23T01:44:51.636Z,28.32
2019-03-23T01:47:20.877Z,30.65
2019-03-23T01:49:50.074Z,28.95
2019-03-23T01:52:19.281Z,27.67
2019-03-23T01:54:48.527Z,25.32
2019-03-23T01:57:17.730Z,28.47
2019-03-23T01:59:46.940Z,28.83
2019-03-23T02:02:16.248Z,30.62
2019-03-23T02:04:45.474Z,34.27
2019-03-23T02:07:15.017Z,29.95
2019-03-23T02:09:44.244Z,27.75
2019-03-23T02:12:14.053Z,28.80
2019-03-23T02:14:43.245Z,29.67
2019-03-23T02:17:12.779Z,31.17
2019-03-23T02:19:42.406Z,31.57
2019-03-23T02:22:11.713Z,29.00
2019-03-23T02:24:40.951Z,31.48
2019-03-23T02:27:10.156Z,29.50
2019-03-23T02:29:39.351Z,30.65
2019-03-23T02:32:08.591Z,29.57
2019-03-23T02:34:37.786Z,33.13
2019-03-23T02:37:07.031Z,31.68
2019-03-23T02:39:36.234Z,32.33
2019-03-23T02:42:05.543Z,30.00
2019-03-23T02:44:34.770Z,32.23
2019-03-23T02:47:04.001Z,35.88
2019-03-23T02:49:33.549Z,32.80
2019-03-23T02:52:02.776Z,32.90
2019-03-23T02:54:31.969Z,30.92
2019-03-23T02:57:01.284Z,33.10
2019-03-23T02:59:30.478Z,33.53
2019-03-23T03:01:59.674Z,32.73
2019-03-23T03:04:28.905Z,29.67
2019-03-23T03:06:58.122Z,31.07
2019-03-23T03:09:27.343Z,27.00
2019-03-23T03:11:56.566Z,28.45
2019-03-23T03:14:26.068Z,29.55
2019-03-23T03:16:55.278Z,29.80
2019-03-23T03:19:24.502Z,34.25
2019-03-23T03:21:53.700Z,35.33
2019-03-23T03:24:22.898Z,33.40
2019-03-23T03:26:52.158Z,33.25
2019-03-23T03:29:21.354Z,30.30
2019-03-23T03:31:50.572Z,30.43
2019-03-23T03:34:19.811Z,27.13
2019-03-23T03:36:49.088Z,29.37
2019-03-23T03:39:18.555Z,37.03
2019-03-23T03:41:48.074Z,34.92
2019-03-23T03:44:17.316Z,30.35
2019-03-23T03:46:46.508Z,23.40
2019-03-23T03:49:15.704Z,25.90
2019-03-23T03:51:44.934Z,29.30
2019-03-23T03:54:14.132Z,34.70
2019-03-23T03:56:43.337Z,33.48
2019-03-23T03:59:12.558Z,26.62
2019-03-23T04:01:41.825Z,26.25
2019-03-23T04:04:11.054Z,25.75
2019-03-23T04:06:40.273Z,27.05
2019-03-23T04:09:09.484Z,28.30
2019-03-23T04:11:38.705Z,27.42
2019-03-23T04:14:07.905Z,32.70
2019-03-23T04:16:37.116Z,38.98
2019-03-23T04:19:06.332Z,40.63
2019-03-23T04:21:35.559Z,38.08
2019-03-23T04:24:04.804Z,35.35
2019-03-23T04:26:34.000Z,27.62
2019-03-23T04:29:03.232Z,32.38
2019-03-23T04:31:32.432Z,30.60
2019-03-23T04:34:01.654Z,31.55
2019-03-23T04:36:30.875Z,26.68
2019-03-23T04:39:00.080Z,29.50
2019-03-23T04:41:29.386Z,30.02
2019-03-23T04:43:58.586Z,31.55
2019-03-23T04:46:27.810Z,33.02
2019-03-23T04:48:57.747Z,33.75
2019-03-23T04:51:27.297Z,31.45
2019-03-23T04:53:56.513Z,33.23
2019-03-23T04:56:25.733Z,31.10
2019-03-23T04:58:54.969Z,38.65
2019-03-23T05:01:24.165Z,32.20
2019-03-23T05:03:53.365Z,34.33
2019-03-23T05:06:22.606Z,29.23
2019-03-23T05:08:51.817Z,27.70
2019-03-23T05:11:21.018Z,28.38
2019-03-23T05:13:50.248Z,26.60
2019-03-23T05:16:19.757Z,29.75
2019-03-23T05:18:49.032Z,29.02
2019-03-23T05:21:18.344Z,26.42
2019-03-23T05:23:47.612Z,32.03
2019-03-23T05:26:16.866Z,31.93
2019-03-23T05:28:46.302Z,27.37
2019-03-23T05:31:15.499Z,27.00
2019-03-23T05:33:44.850Z,31.65
2019-03-23T05:36:15.343Z,29.70
2019-03-23T05:38:44.990Z,35.55
2019-03-23T05:41:14.333Z,30.37
2019-03-23T05:43:43.550Z,32.23
2019-03-23T05:46:12.731Z,29.30
2019-03-23T05:48:42.289Z,31.33
2019-03-23T05:51:11.493Z,31.48
2019-03-23T05:53:40.687Z,31.05
2019-03-23T05:56:09.914Z,31.23
2019-03-23T05:58:39.462Z,31.48
2019-03-23T06:01:08.662Z,30.70
2019-03-23T06:03:37.894Z,29.90
2019-03-23T06:06:07.174Z,26.23
2019-03-23T06:08:36.398Z,29.70
2019-03-23T06:11:05.656Z,31.40
2019-03-23T06:13:34.856Z,33.02
2019-03-23T06:16:04.052Z,28.02
2019-03-23T06:18:33.277Z,26.30
2019-03-23T06:21:02.474Z,29.50
2019-03-23T06:23:31.671Z,27.75
2019-03-23T06:26:00.895Z,27.13
2019-03-23T06:28:30.105Z,28.27
2019-03-23T06:30:59.310Z,31.15
2019-03-23T06:33:28.541Z,30.52
2019-03-23T06:35:58.041Z,32.83
2019-03-23T06:38:27.241Z,33.95
2019-03-23T06:40:56.526Z,35.45
2019-03-23T06:43:25.684Z,37.70
2019-03-23T06:45:54.880Z,38.92
2019-03-23T06:48:24.117Z,40.92
2019-03-23T06:50:53.324Z,42.78
2019-03-23T06:53:22.560Z,49.10
2019-03-23T06:55:51.767Z,42.48
2019-03-23T06:58:20.995Z,43.25
2019-03-23T07:00:50.350Z,61.45
2019-03-23T07:03:19.553Z,61.77
2019-03-23T07:05:48.777Z,52.67
2019-03-23T07:08:18.016Z,73.65
2019-03-23T07:10:47.244Z,74.07
2019-03-23T07:13:16.452Z,71.45
2019-03-23T07:15:45.683Z,71.57
2019-03-23T07:18:14.885Z,67.25
2019-03-23T07:20:44.091Z,72.78
2019-03-23T07:23:13.323Z,67.05
2019-03-23T07:25:42.550Z,64.70
2019-03-23T07:28:11.830Z,66.05
2019-03-23T07:30:41.038Z,64.07
2019-03-23T07:33:10.271Z,66.67
2019-03-23T07:35:39.494Z,62.67
2019-03-23T07:38:08.716Z,77.17
2019-03-23T07:40:38.224Z,76.87
2019-03-23T07:43:07.522Z,76.95
2019-03-23T07:45:36.732Z,70.65
2019-03-23T07:48:05.949Z,78.65
2019-03-23T07:50:35.194Z,76.82
2019-03-23T07:53:04.755Z,83.40
2019-03-23T07:55:33.961Z,73.83
2019-03-23T07:58:03.188Z,77.25
2019-03-23T08:00:32.401Z,73.40
2019-03-23T08:03:01.616Z,73.10
2019-03-23T08:05:30.854Z,76.47
2019-03-23T08:08:00.100Z,74.90
2019-03-23T08:10:33.493Z,72.22
2019-03-23T08:13:02.806Z,67.97
2019-03-23T08:15:32.123Z,73.30
2019-03-23T08:18:01.428Z,72.03
2019-03-23T08:20:30.640Z,75.42
2019-03-23T08:22:59.845Z,73.95
2019-03-23T08:25:29.080Z,74.97
2019-03-23T08:27:58.835Z,78.72
2019-03-23T08:30:28.076Z,73.33
2019-03-23T08:32:57.298Z,71.67
2019-03-23T08:35:26.895Z,68.42
2019-03-23T08:37:56.132Z,75.00
2019-03-23T08:40:25.343Z,73.57
2019-03-23T08:42:54.549Z,67.30
2019-03-23T08:45:23.782Z,74.77
2019-03-23T08:47:52.986Z,71.37
2019-03-23T08:50:22.189Z,74.15
2019-03-23T08:52:51.422Z,67.08
2019-03-23T08:55:22.025Z,71.80
2019-03-23T08:57:51.321Z,67.12
2019-03-23T09:00:20.548Z,71.12
2019-03-23T09:02:49.751Z,53.92
2019-03-23T09:05:18.961Z,64.85
2019-03-23T09:07:48.219Z,63.85
2019-03-23T09:10:17.451Z,65.22
2019-03-23T09:12:46.691Z,65.70
2019-03-23T09:15:15.995Z,61.92
2019-03-23T09:17:45.199Z,62.05
2019-03-23T09:20:14.518Z,59.88
2019-03-23T09:22:43.723Z,61.35
2019-03-23T09:25:12.922Z,63.85
2019-03-23T09:27:42.164Z,67.03
2019-03-23T09:30:11.714Z,53.95
2019-03-23T09:32:40.923Z,62.05
2019-03-23T09:35:10.248Z,59.10
2019-03-23T09:37:39.449Z,50.63
2019-03-23T09:40:11.150Z,56.10
2019-03-23T09:42:40.363Z,55.80
2019-03-23T09:45:09.932Z,56.58
2019-03-23T09:47:39.148Z,58.80
2019-03-23T09:50:08.967Z,48.92
2019-03-23T09:52:38.267Z,56.68
2019-03-23T09:55:07.931Z,53.78
2019-03-23T09:57:37.238Z,57.90
2019-03-23T10:00:08.128Z,58.70
2019-03-23T10:02:37.467Z,57.67
2019-03-23T10:05:07.477Z,54.13
2019-03-23T10:07:36.680Z,60.25
2019-03-23T10:10:06.496Z,58.50
2019-03-23T10:12:35.747Z,57.10
2019-03-23T10:15:05.804Z,61.30
2019-03-23T10:17:35.033Z,60.17
2019-03-23T10:20:04.833Z,59.60
2019-03-23T10:22:34.036Z,49.10
2019-03-23T10:25:03.268Z,51.02
2019-03-23T10:27:32.474Z,56.02
2019-03-23T10:30:01.698Z,51.23
2019-03-23T10:32:30.916Z,53.42
2019-03-23T10:35:00.441Z,51.10
2019-03-23T10:37:29.723Z,57.45
2019-03-23T10:39:58.953Z,50.25
2019-03-23T10:42:28.167Z,48.40
2019-03-23T10:44:57.372Z,52.58
2019-03-23T10:47:26.681Z,50.73
2019-03-23T10:49:55.894Z,54.98
2019-03-23T10:52:25.103Z,48.65
2019-03-23T10:54:54.344Z,50.80
2019-03-23T10:57:23.538Z,51.30
2019-03-23T10:59:52.771Z,50.10
2019-03-23T11:02:22.057Z,49.67
2019-03-23T11:04:51.265Z,46.35
2019-03-23T11:07:20.926Z,48.45
2019-03-23T11:09:50.134Z,53.10
2019-03-23T11:12:19.358Z,48.63
2019-03-23T11:14:48.599Z,49.53
2019-03-23T11:17:17.807Z,50.35
2019-03-23T11:19:47.047Z,48.25
2019-03-23T11:22:18.642Z,46.55
2019-03-23T11:24:47.849Z,49.75
2019-03-23T11:27:17.089Z,48.17
2019-03-23T11:29:46.308Z,50.67
2019-03-23T11:32:15.529Z,50.23
2019-03-23T11:34:44.766Z,47.05
2019-03-23T11:37:14.001Z,47.88
2019-03-23T11:39:43.184Z,47.90
2019-03-23T11:42:12.415Z,47.90
2019-03-23T11:44:41.949Z,49.45
2019-03-23T11:47:11.157Z,52.00
2019-03-23T11:49:40.688Z,49.85
2019-03-23T11:52:09.886Z,49.63
2019-03-23T11:54:39.123Z,49.38
2019-03-23T11:57:08.672Z,48.00
2019-03-23T11:59:37.889Z,49.40
2019-03-23T12:02:07.131Z,52.00
2019-03-23T12:04:36.349Z,47.58
2019-03-23T12:07:05.550Z,49.20
2019-03-23T12:09:34.793Z,49.67
2019-03-23T12:12:04.522Z,48.10
2019-03-23T12:14:33.756Z,48.00
2019-03-23T12:17:03.992Z,49.70
2019-03-23T12:19:33.281Z,48.87
2019-03-23T12:22:02.708Z,47.27
2019-03-23T12:24:32.227Z,54.88
2019-03-23T12:27:01.798Z,46.88
2019-03-23T12:29:31.011Z,48.73
2019-03-23T12:32:00.511Z,47.33
2019-03-23T12:34:29.754Z,47.62
2019-03-23T12:36:58.964Z,47.95
2019-03-23T12:39:28.610Z,44.50
2019-03-23T12:41:58.199Z,46.70
2019-03-23T12:44:27.767Z,47.08
2019-03-23T12:46:56.977Z,46.55
2019-03-23T12:49:26.223Z,46.70
2019-03-23T12:51:55.542Z,46.30
2019-03-23T12:54:24.772Z,44.13
2019-03-23T12:56:54.003Z,47.65
2019-03-23T12:59:23.215Z,46.75
2019-03-23T13:01:52.447Z,50.85
2019-03-23T13:04:22.019Z,46.30
2019-03-23T13:06:51.224Z,47.43
2019-03-23T13:09:20.432Z,45.90
2019-03-23T13:11:49.656Z,45.80
2019-03-23T13:14:18.890Z,54.25
2019-03-23T13:16:48.123Z,52.33
2019-03-23T13:19:19.494Z,49.80
2019-03-23T13:21:48.737Z,44.98
2019-03-23T13:24:17.932Z,46.25
2019-03-23T13:26:47.139Z,47.48
2019-03-23T13:29:16.371Z,47.78
2019-03-23T13:31:45.578Z,44.88
2019-03-23T13:34:14.785Z,48.05
2019-03-23T13:36:44.028Z,47.90
2019-03-23T13:39:13.251Z,46.60
2019-03-23T13:41:49.078Z,48.70
2019-03-23T13:44:18.351Z,47.65
2019-03-23T13:46:47.594Z,48.68
2019-03-23T13:49:16.800Z,43.50
2019-03-23T13:51:46.043Z,46.85
2019-03-23T13:54:15.267Z,48.85
2019-03-23T13:56:44.481Z,50.58
2019-03-23T13:59:13.720Z,51.40
2019-03-23T14:01:42.932Z,49.77
2019-03-23T14:04:12.463Z,54.00
2019-03-23T14:06:41.699Z,48.52
2019-03-23T14:09:10.898Z,50.40
2019-03-23T14:11:40.119Z,49.03
2019-03-23T14:14:09.374Z,48.20
2019-03-23T14:16:38.584Z,49.70
2019-03-23T14:19:07.776Z,47.15
2019-03-23T14:21:37.019Z,47.03
2019-03-23T14:24:06.314Z,46.63
2019-03-23T14:26:35.517Z,47.08
2019-03-23T14:29:04.755Z,45.92
2019-03-23T14:31:33.987Z,45.73
2019-03-23T14:34:04.039Z,44.03
2019-03-23T14:36:33.282Z,44.83
2019-03-23T14:39:02.499Z,43.30
2019-03-23T14:41:31.702Z,42.93
2019-03-23T14:44:00.927Z,43.55
2019-03-23T14:46:30.131Z,43.78
2019-03-23T14:49:01.593Z,46.00
2019-03-23T14:51:30.303Z,48.73
2019-03-23T14:53:59.511Z,46.40
2019-03-23T14:56:31.776Z,44.13
2019-03-23T14:58:59.666Z,44.90
2019-03-23T15:01:28.899Z,48.08
2019-03-23T15:03:58.111Z,44.55
2019-03-23T15:06:27.445Z,47.53
2019-03-23T15:08:56.678Z,44.93
2019-03-23T15:11:25.885Z,46.20
2019-03-23T15:13:55.123Z,42.50
2019-03-23T15:16:24.330Z,45.08
2019-03-23T15:18:53.815Z,45.23
2019-03-23T15:21:23.048Z,43.70
2019-03-23T15:23:52.254Z,44.13
2019-03-23T15:26:21.463Z,43.73
2019-03-23T15:28:51.314Z,43.65
2019-03-23T15:31:20.531Z,42.40
2019-03-23T15:33:49.731Z,42.67
2019-03-23T15:36:19.058Z,41.83
2019-03-23T15:38:48.607Z,44.85
2019-03-23T15:41:17.827Z,44.13
2019-03-23T15:43:47.058Z,45.43
2019-03-23T15:46:16.260Z,44.33
2019-03-23T15:48:45.823Z,39.90
2019-03-23T15:51:15.093Z,44.30
2019-03-23T15:53:44.628Z,42.83
2019-03-23T15:56:13.863Z,42.83
2019-03-23T15:58:43.084Z,43.98
2019-03-23T16:01:12.289Z,45.25
2019-03-23T16:03:41.525Z,45.67
2019-03-23T16:06:10.750Z,42.85
2019-03-23T16:08:39.951Z,43.45
2019-03-23T16:11:09.156Z,44.80
2019-03-23T16:13:38.386Z,46.30
2019-03-23T16:16:07.628Z,45.63
2019-03-23T16:18:37.122Z,45.75
2019-03-23T16:21:06.334Z,44.35
2019-03-23T16:23:35.538Z,46.70
2019-03-23T16:26:04.840Z,46.75
2019-03-23T16:28:34.045Z,46.13
2019-03-23T16:31:03.255Z,46.83
2019-03-23T16:33:32.483Z,47.67
2019-03-23T16:36:03.537Z,46.73
2019-03-23T16:38:32.678Z,47.53
2019-03-23T16:41:01.879Z,45.40
2019-03-23T16:43:31.113Z,44.67
2019-03-23T16:46:00.327Z,53.83
2019-03-23T16:48:29.535Z,48.23
2019-03-23T16:50:58.752Z,50.28
2019-03-23T16:53:27.955Z,49.27
2019-03-23T16:55:57.191Z,52.15
2019-03-23T16:58:26.406Z,51.80
2019-03-23T17:00:55.608Z,49.95
2019-03-23T17:03:24.825Z,53.13
2019-03-23T17:05:54.325Z,53.17
2019-03-23T17:08:23.561Z,55.83
2019-03-23T17:10:53.171Z,53.35
2019-03-23T17:13:22.388Z,54.00
2019-03-23T17:15:51.619Z,53.02
2019-03-23T17:18:20.882Z,52.98
2019-03-23T17:20:50.088Z,54.70
2019-03-23T17:23:19.302Z,53.80
2019-03-23T17:25:48.540Z,55.88
2019-03-23T17:28:17.751Z,54.53
2019-03-23T17:30:46.958Z,56.02
2019-03-23T17:33:16.485Z,57.17
2019-03-23T17:35:45.697Z,55.85
2019-03-23T17:38:15.245Z,58.60
2019-03-23T17:40:44.537Z,54.88
2019-03-23T17:43:13.742Z,56.42
2019-03-23T17:45:43.622Z,51.73
2019-03-23T17:48:12.823Z,52.40
2019-03-23T17:50:42.032Z,55.65
2019-03-23T17:53:11.259Z,52.48
2019-03-23T17:55:40.572Z,51.42
2019-03-23T17:58:09.785Z,53.13
2019-03-23T18:00:38.998Z,51.18
2019-03-23T18:03:08.232Z,53.17
2019-03-23T18:05:37.442Z,52.88
2019-03-23T18:08:06.874Z,52.33
2019-03-23T18:10:36.109Z,51.35
2019-03-23T18:13:15.917Z,53.83
2019-03-23T18:15:36.686Z,52.53
2019-03-23T18:18:05.999Z,52.60
2019-03-23T18:20:35.281Z,54.13
2019-03-23T18:23:04.492Z,53.05
2019-03-23T18:25:33.741Z,52.55
2019-03-23T18:28:02.944Z,51.77
2019-03-23T18:30:38.324Z,54.38
2019-03-23T18:33:07.904Z,54.75
2019-03-23T18:35:37.288Z,54.23
2019-03-23T18:38:06.678Z,55.25
2019-03-23T18:40:36.387Z,53.85
2019-03-23T18:43:05.924Z,57.03
2019-03-23T18:45:35.902Z,55.23
2019-03-23T18:48:05.697Z,59.42
2019-03-23T18:50:34.904Z,62.17
2019-03-23T18:53:04.549Z,62.75
2019-03-23T18:55:33.767Z,60.20
2019-03-23T18:58:02.985Z,62.95
2019-03-23T19:00:43.003Z,58.65
2019-03-23T19:03:12.705Z,56.42
2019-03-23T19:05:42.200Z,52.90
2019-03-23T19:08:12.008Z,48.87
2019-03-23T19:10:41.375Z,49.95
2019-03-23T19:13:10.650Z,51.00
2019-03-23T19:15:39.883Z,51.40
2019-03-23T19:18:09.142Z,49.42
2019-03-23T19:20:38.419Z,47.90
2019-03-23T19:23:07.775Z,43.48
2019-03-23T19:25:37.066Z,45.92
2019-03-23T19:28:06.927Z,41.92
2019-03-23T19:30:36.357Z,38.85
2019-03-23T19:33:06.353Z,39.20
2019-03-23T19:35:35.679Z,38.45
2019-03-23T19:38:05.176Z,38.78
2019-03-23T19:40:34.394Z,40.08
2019-03-23T19:43:03.602Z,37.35
2019-03-23T19:45:32.809Z,36.17
2019-03-23T19:48:02.047Z,36.15
2019-03-23T19:50:31.250Z,36.68
2019-03-23T19:53:00.451Z,32.40
2019-03-23T19:55:29.986Z,34.23
2019-03-23T19:57:59.223Z,34.15
2019-03-23T20:00:28.421Z,33.78
2019-03-23T20:02:57.615Z,33.90
2019-03-23T20:05:26.834Z,30.15
2019-03-23T20:07:56.053Z,26.80
2019-03-23T20:10:25.280Z,27.27
2019-03-23T20:12:54.487Z,21.30
2019-03-23T20:15:23.774Z,20.62
2019-03-23T20:17:53.027Z,20.77
2019-03-23T20:20:22.401Z,18.87
2019-03-23T20:22:51.598Z,16.12
2019-03-23T20:25:20.807Z,14.18
2019-03-23T20:27:50.001Z,15.53
2019-03-23T20:30:19.621Z,14.47
2019-03-23T20:32:48.847Z,15.83
2019-03-23T20:35:18.057Z,14.65
2019-03-23T20:37:47.638Z,16.90
2019-03-23T20:40:16.925Z,15.75
2019-03-23T20:42:46.134Z,15.70
2019-03-23T20:45:26.394Z,17.50
2019-03-23T20:47:56.456Z,14.78
2019-03-23T20:50:25.604Z,14.95
2019-03-23T20:52:55.917Z,15.15
2019-03-23T20:55:27.082Z,15.28
2019-03-23T20:57:57.386Z,14.83
2019-03-23T21:00:26.679Z,13.78
2019-03-23T21:02:55.986Z,13.90
2019-03-23T21:05:33.069Z,13.83
2019-03-23T21:07:56.139Z,12.55
2019-03-23T21:10:25.421Z,10.25
2019-03-23T21:12:54.630Z,13.05
2019-03-23T21:15:23.861Z,15.38
2019-03-23T21:17:53.447Z,13.55
2019-03-23T21:20:22.685Z,16.23
2019-03-23T21:22:51.918Z,13.10
2019-03-23T21:25:21.198Z,12.05
2019-03-23T21:27:50.401Z,13.15
2019-03-23T21:30:21.477Z,11.45
2019-03-23T21:32:51.050Z,11.70
2019-03-23T21:35:20.587Z,10.70
2019-03-23T21:37:49.814Z,12.75
2019-03-23T21:40:19.062Z,12.88
2019-03-23T21:42:48.303Z,11.70
2019-03-23T21:45:17.581Z,12.20
2019-03-23T21:47:46.786Z,12.93
2019-03-23T21:50:16.095Z,10.65
2019-03-23T21:52:45.297Z,10.82
2019-03-23T21:55:15.536Z,11.18
2019-03-23T21:57:45.021Z,12.33
2019-03-23T22:00:19.688Z,12.45
2019-03-23T22:02:48.904Z,12.25
2019-03-23T22:05:18.105Z,12.28
2019-03-23T22:07:47.327Z,13.30
2019-03-23T22:10:16.641Z,11.45
2019-03-23T22:12:45.852Z,13.08
2019-03-23T22:15:15.633Z,10.80
2019-03-23T22:17:45.478Z,9.55
2019-03-23T22:20:15.079Z,11.68
2019-03-23T22:22:44.275Z,9.35
2019-03-23T22:25:13.574Z,10.45
2019-03-23T22:27:42.802Z,10.85
2019-03-23T22:30:13.729Z,11.63
2019-03-23T22:32:43.095Z,9.50
2019-03-23T22:35:12.486Z,9.80
2019-03-23T22:37:42.039Z,10.40
2019-03-23T22:40:12.400Z,10.95
2019-03-23T22:42:41.636Z,10.13
2019-03-23T22:45:11.403Z,10.58
2019-03-23T22:47:40.593Z,9.45
2019-03-23T22:50:10.803Z,10.82
2019-03-23T22:52:40.002Z,10.75
2019-03-23T22:55:09.660Z,10.00
2019-03-23T22:57:38.879Z,8.90
2019-03-23T23:00:08.776Z,8.70
2019-03-23T23:02:38.080Z,9.28
2019-03-23T23:05:08.405Z,8.33
2019-03-23T23:07:37.609Z,8.98
2019-03-23T23:10:07.220Z,8.65
2019-03-23T23:12:36.748Z,8.20
2019-03-23T23:15:06.689Z,8.70
2019-03-23T23:17:35.911Z,8.30
2019-03-23T23:20:05.855Z,7.00
2019-03-23T23:22:35.044Z,6.95
2019-03-23T23:25:05.152Z,7.15
2019-03-23T23:27:34.365Z,6.05
2019-03-23T23:30:03.998Z,7.62
2019-03-23T23:32:33.208Z,8.00
2019-03-23T23:35:02.396Z,7.60
2019-03-23T23:37:31.619Z,6.40
2019-03-23T23:40:00.816Z,6.70
2019-03-23T23:42:30.008Z,5.50
2019-03-23T23:44:59.261Z,7.08
2019-03-23T23:47:28.455Z,7.35
2019-03-23T23:49:57.649Z,8.08
2019-03-23T23:52:26.876Z,7.78
2019-03-23T23:54:56.073Z,5.72
2019-03-23T23:57:25.578Z,6.85
2019-03-23T23:59:54.799Z,6.67
